ROMMA est une association bénévole à but non lucratif. Votre soutien est indispensable : ADHERER à ROMMA ou FAIRE un DON

Miribel-les-Echelles - (38, Isère)

Massif de la Chartreuse (760 m)   Longitude: 05° 41' 54'' E   Latitude: 45° 26' 40'' N Station romma n°22
 

Détail journalier du     <<     >>

Température Precipitation Humidité Pression Vent Dir Rafale Dir. rafale Ensol.
Heure (°C) (mm) (%) (hPa) (km/h) (km/h) (min)
01:00 9.1091102003ONO0
02:00 8.109010202OSO6O0
03:00 9.608710201O10O0
04:00 8.5091102005ONO0
05:00 8.908810203ONO11O0
06:00 8.609010212SE11O0
07:00 7.409210211SO6ONO0
08:00 6.709210211ONO5ONO0
09:00 9.6090102205ONO60
10:00 11.007910232NO11NO60
11:00 11.707910233E11E60
12:00 12.407610233E13N60
13:00 12.407610234NO16NNE60
14:00 12.707710236NO16NNO60
15:00 13.407310232E10NNO60
16:00 13.706310235NE15O60
17:00 13.707010235NO15NO60
18:00 12.807310235NO15NNO60
19:00 10.308010233NNO16NO0
20:00 9.208210232NNO6NO0
21:00 8.408610232NO6O0
22:00 7.808810232ONO5ONO0
23:00 7.809010232SE6SSE0
minuit 7.009010232OSO5OSO0

Graphique du 10-10-2019

 

Serveur OMMA